Bellaire, Michigan
Current Conditions -  °F | °C
As of 1:37 AM on Thursday 27 Nov 2014 (Local Time) from KACB Reporting Station
Light Snow Light Snow  
Wind Chill: 27°   Ceiling: 2200
Heat Index: 27°   Visibility: 7mi
Dew Point: 26°   Wind: 0mph
Humidity: 94%   Direction: NA
Pressure: 30.13"   Gusts: NA
Location:  44.98°N, 85.21°W
Report Text: KACB 270637Z AUTO 00000KT 7SM -SN BKN022 OVC029 M03/M03 A3013 RMK AO2 T10271035
Loading
Personal Weather Stations






























Interactive Weather Map New forecast layout! Learn more

10-Day Weather Forecast

Advertisements
Track Severe Weather on mobile